createdAt,value
2019-02-09T00:04:16.725Z,93.20
2019-02-09T00:14:18.368Z,93.80
2019-02-09T00:24:19.888Z,93.50
2019-02-09T00:34:21.409Z,92.90
2019-02-09T00:44:22.845Z,88.10
2019-02-09T00:54:25.254Z,86.50
2019-02-09T01:04:28.485Z,85.50
2019-02-09T01:14:30.405Z,83.00
2019-02-09T01:24:31.768Z,80.50
2019-02-09T01:34:33.190Z,79.80
2019-02-09T01:44:34.692Z,78.90
2019-02-09T01:54:36.105Z,78.70
2019-02-09T02:04:38.695Z,78.80
2019-02-09T02:14:40.400Z,78.90
2019-02-09T02:24:41.801Z,79.20
2019-02-09T02:34:43.211Z,78.90
2019-02-09T02:44:44.724Z,78.60
2019-02-09T02:54:46.136Z,78.10
2019-02-09T03:04:48.609Z,77.00
2019-02-09T03:14:50.182Z,77.10
2019-02-09T03:24:51.593Z,76.80
2019-02-09T03:34:53.007Z,78.00
2019-02-09T03:44:55.515Z,77.20
2019-02-09T03:54:56.918Z,77.60
2019-02-09T04:04:59.384Z,78.20
2019-02-09T04:15:00.968Z,77.90
2019-02-09T04:25:05.085Z,77.90
2019-02-09T04:35:07.709Z,78.20
2019-02-09T04:45:12.005Z,78.70
2019-02-09T04:55:20.041Z,79.50
2019-02-09T05:05:22.720Z,80.30
2019-02-09T05:15:24.502Z,80.10
2019-02-09T05:25:25.892Z,80.80
2019-02-09T05:35:27.264Z,80.40
2019-02-09T05:45:29.501Z,80.80
2019-02-09T05:55:30.873Z,81.00
2019-02-09T06:05:34.252Z,80.80
2019-02-09T06:15:35.789Z,79.70
2019-02-09T06:25:37.200Z,79.80
2019-02-09T06:35:38.607Z,79.80
2019-02-09T06:45:40.021Z,79.20
2019-02-09T06:55:41.514Z,76.50
2019-02-09T07:05:43.946Z,73.90
2019-02-09T07:15:45.928Z,76.30
2019-02-09T07:25:47.349Z,77.50
2019-02-09T07:35:48.753Z,78.70
2019-02-09T07:45:50.176Z,77.70
2019-02-09T07:55:51.668Z,76.60
2019-02-09T08:05:54.117Z,75.80
2019-02-09T08:15:55.647Z,75.10
2019-02-09T08:25:57.060Z,71.00
2019-02-09T08:35:58.570Z,68.50
2019-02-09T08:46:00.081Z,66.90
2019-02-09T08:56:01.452Z,68.80
2019-02-09T09:06:05.080Z,67.60
2019-02-09T09:16:08.344Z,68.10
2019-02-09T09:26:09.952Z,69.20
2019-02-09T09:36:11.377Z,69.10
2019-02-09T09:46:13.420Z,70.90
2019-02-09T09:56:14.836Z,72.10
2019-02-09T10:06:17.316Z,69.60
2019-02-09T10:16:18.825Z,66.10
2019-02-09T10:26:20.229Z,66.30
2019-02-09T10:36:21.547Z,66.00
2019-02-09T10:46:23.336Z,65.00
2019-02-09T10:56:24.756Z,65.30
2019-02-09T11:06:27.263Z,65.00
2019-02-09T11:16:28.927Z,66.50
2019-02-09T11:26:31.444Z,63.20
2019-02-09T11:36:32.880Z,61.80
2019-02-09T11:46:34.684Z,60.40
2019-02-09T11:56:36.356Z,61.00
2019-02-09T12:06:38.972Z,61.20
2019-02-09T12:16:40.640Z,62.50
2019-02-09T12:26:41.962Z,61.60
2019-02-09T12:36:43.404Z,61.10
2019-02-09T12:46:45.126Z,61.00
2019-02-09T12:56:46.624Z,62.60
2019-02-09T13:06:49.780Z,62.90
2019-02-09T13:16:51.308Z,61.90
2019-02-09T13:26:52.732Z,63.70
2019-02-09T13:36:54.152Z,63.60
2019-02-09T13:46:55.668Z,64.10
2019-02-09T13:56:57.062Z,65.40
2019-02-09T14:07:00.304Z,67.30
2019-02-09T14:17:04.476Z,68.20
2019-02-09T14:27:12.959Z,67.60
2019-02-09T14:37:16.394Z,67.20
2019-02-09T14:47:18.356Z,68.00
2019-02-09T14:57:19.736Z,69.30
2019-02-09T15:07:24.220Z,69.50
2019-02-09T15:17:27.396Z,70.30
2019-02-09T15:27:30.108Z,71.50
2019-02-09T15:37:31.896Z,72.80
2019-02-09T15:47:33.491Z,73.20
2019-02-09T15:57:34.964Z,74.50
2019-02-09T16:07:37.320Z,75.30
2019-02-09T16:17:38.819Z,74.90
2019-02-09T16:27:40.210Z,75.00
2019-02-09T16:37:42.033Z,75.00
2019-02-09T16:47:44.011Z,74.50
2019-02-09T16:57:45.982Z,75.20
2019-02-09T17:07:48.436Z,75.40
2019-02-09T17:17:50.109Z,75.80
2019-02-09T17:27:51.825Z,77.20
2019-02-09T17:37:53.287Z,77.20
2019-02-09T17:47:55.051Z,77.80
2019-02-09T17:57:56.525Z,78.30
2019-02-09T18:07:59.054Z,78.30
2019-02-09T18:18:00.733Z,79.40
2019-02-09T18:28:02.716Z,79.50
2019-02-09T18:38:04.346Z,79.60
2019-02-09T18:48:05.881Z,79.30
2019-02-09T18:58:07.268Z,79.10
2019-02-09T19:08:10.984Z,79.50
2019-02-09T19:18:12.485Z,79.40
2019-02-09T19:28:13.889Z,79.20
2019-02-09T19:38:15.340Z,78.00
2019-02-09T19:48:16.857Z,76.90
2019-02-09T19:58:18.336Z,76.20
2019-02-09T20:08:20.787Z,75.80
2019-02-09T20:18:22.368Z,77.00
2019-02-09T20:28:23.812Z,76.90
2019-02-09T20:38:25.363Z,77.10
2019-02-09T20:48:26.788Z,77.70
2019-02-09T20:58:28.074Z,79.60
2019-02-09T21:08:30.457Z,79.90
2019-02-09T21:18:32.031Z,80.40
2019-02-09T21:28:33.405Z,79.20
2019-02-09T21:38:34.784Z,78.10
2019-02-09T21:48:36.304Z,78.10
2019-02-09T21:58:37.712Z,77.90
2019-02-09T22:08:40.117Z,77.90
2019-02-09T22:18:41.750Z,79.00
2019-02-09T22:28:43.322Z,78.90
2019-02-09T22:38:44.728Z,79.90
2019-02-09T22:48:46.061Z,80.00
2019-02-09T22:58:47.464Z,80.30
2019-02-09T23:08:55.792Z,80.60
2019-02-09T23:18:57.360Z,80.80
2019-02-09T23:28:58.672Z,80.80
2019-02-09T23:38:59.991Z,80.60
2019-02-09T23:49:01.797Z,80.30
2019-02-09T23:59:04.281Z,80.60
